Allandale, Florida
Current Conditions -  °F | °C
As of 11:53 AM on Saturday 22 Nov 2014 (Local Time) from KDAB Reporting Station
Overcast Overcast  
Wind Chill: 72°   Ceiling: 3400
Heat Index: 72°   Visibility: 9mi
Dew Point: 63°   Wind: 14mph
Humidity: 73%   Direction: 90°E
Pressure: 30.28"   Gusts: NA
Location:  29.1486°N, 81.0301°W
Report Text: KDAB 221653Z 09012KT 9SM FEW026 BKN034 OVC075 22/17 A3028 RMK AO2 RAB09E44 SLP252 P0000 T02220172
Loading
Personal Weather Stations






























Interactive Weather Map New forecast layout! Learn more

10-Day Weather Forecast

Advertisements
Track Severe Weather on mobile